createdAt,value
2022-08-26T00:01:31.303Z,53.76
2022-08-26T00:03:58.881Z,53.97
2022-08-26T00:06:26.437Z,54.07
2022-08-26T00:08:53.422Z,54.22
2022-08-26T00:11:26.714Z,53.63
2022-08-26T00:13:54.913Z,54.55
2022-08-26T00:16:23.853Z,55.78
2022-08-26T00:18:51.406Z,55.72
2022-08-26T00:21:18.556Z,56.11
2022-08-26T00:23:46.070Z,55.53
2022-08-26T00:26:14.282Z,55.09
2022-08-26T00:28:41.352Z,54.99
2022-08-26T00:31:11.099Z,55.06
2022-08-26T00:33:41.051Z,54.76
2022-08-26T00:36:09.165Z,55.27
2022-08-26T00:38:47.146Z,54.69
2022-08-26T00:41:14.010Z,55.15
2022-08-26T00:43:47.593Z,54.93
2022-08-26T00:46:23.699Z,54.86
2022-08-26T00:48:53.993Z,54.83
2022-08-26T00:51:24.826Z,55.03
2022-08-26T00:54:04.021Z,54.56
2022-08-26T00:56:38.015Z,54.64
2022-08-26T00:59:11.890Z,53.76
2022-08-26T01:01:41.343Z,53.96
2022-08-26T01:04:09.733Z,53.76
2022-08-26T01:06:36.583Z,54.22
2022-08-26T01:09:04.014Z,53.91
2022-08-26T01:11:32.185Z,54.26
2022-08-26T01:14:02.105Z,53.65
2022-08-26T01:16:30.294Z,53.04
2022-08-26T01:19:01.740Z,52.84
2022-08-26T01:21:44.016Z,53.32
2022-08-26T01:24:12.493Z,53.57
2022-08-26T01:26:42.604Z,52.88
2022-08-26T01:29:13.309Z,53.07
2022-08-26T01:31:55.440Z,53.39
2022-08-26T01:34:26.012Z,53.53
2022-08-26T01:36:58.747Z,53.21
2022-08-26T01:39:25.440Z,53.35
2022-08-26T01:41:56.826Z,53.93
2022-08-26T01:44:29.241Z,53.48
2022-08-26T01:46:57.923Z,53.54
2022-08-26T01:49:26.731Z,53.39
2022-08-26T01:51:56.234Z,53.58
2022-08-26T01:54:25.568Z,54.30
2022-08-26T01:56:54.357Z,54.29
2022-08-26T01:59:23.715Z,53.89
2022-08-26T02:01:51.266Z,54.09
2022-08-26T02:04:33.566Z,54.20
2022-08-26T02:07:04.125Z,53.97
2022-08-26T02:09:31.157Z,53.92
2022-08-26T02:12:01.503Z,54.83
2022-08-26T02:14:36.344Z,54.74
2022-08-26T02:17:11.224Z,53.99
2022-08-26T02:19:41.701Z,54.65
2022-08-26T02:22:15.011Z,54.34
2022-08-26T02:24:52.818Z,53.64
2022-08-26T02:27:33.113Z,53.27
2022-08-26T02:30:09.195Z,54.00
2022-08-26T02:32:37.175Z,53.87
2022-08-26T02:35:08.229Z,53.52
2022-08-26T02:37:35.263Z,53.78
2022-08-26T02:40:04.075Z,53.87
2022-08-26T02:42:30.967Z,53.88
2022-08-26T02:44:57.816Z,53.41
2022-08-26T02:47:25.566Z,53.12
2022-08-26T02:49:55.981Z,53.73
2022-08-26T02:52:22.772Z,53.82
2022-08-26T02:54:49.770Z,55.14
2022-08-26T02:57:16.812Z,56.80
2022-08-26T02:59:43.915Z,56.95
2022-08-26T03:02:11.360Z,56.80
2022-08-26T03:04:39.364Z,56.17
2022-08-26T03:07:06.868Z,56.39
2022-08-26T03:09:33.891Z,55.31
2022-08-26T03:12:01.339Z,54.61
2022-08-26T03:14:29.831Z,55.10
2022-08-26T03:16:56.538Z,55.05
2022-08-26T03:19:25.154Z,54.99
2022-08-26T03:21:57.711Z,54.25
2022-08-26T03:24:25.585Z,55.99
2022-08-26T03:26:52.846Z,55.08
2022-08-26T03:29:39.558Z,55.38
2022-08-26T03:32:06.499Z,53.36
2022-08-26T03:34:33.464Z,54.11
2022-08-26T03:37:00.221Z,53.68
2022-08-26T03:39:26.938Z,53.49
2022-08-26T03:41:55.374Z,53.49
2022-08-26T03:44:22.162Z,53.58
2022-08-26T03:46:49.874Z,54.03
2022-08-26T03:49:16.663Z,54.26
2022-08-26T03:51:43.380Z,55.28
2022-08-26T03:54:11.523Z,55.44
2022-08-26T03:56:38.547Z,55.58
2022-08-26T03:59:07.625Z,55.08
2022-08-26T04:01:35.524Z,55.29
2022-08-26T04:04:03.281Z,54.50
2022-08-26T04:06:36.556Z,54.87
2022-08-26T04:09:09.161Z,55.61
2022-08-26T04:11:38.663Z,56.61
2022-08-26T04:14:09.565Z,56.66
2022-08-26T04:16:37.109Z,56.21
2022-08-26T04:19:04.355Z,55.25
2022-08-26T04:21:31.333Z,54.17
2022-08-26T04:23:58.326Z,54.18
2022-08-26T04:26:26.200Z,54.31
2022-08-26T04:28:55.178Z,53.80
2022-08-26T04:31:22.729Z,53.63
2022-08-26T04:33:50.835Z,53.89
2022-08-26T04:36:20.261Z,53.49
2022-08-26T04:38:47.927Z,54.58
2022-08-26T04:41:15.446Z,54.23
2022-08-26T04:43:44.913Z,54.84
2022-08-26T04:46:13.811Z,53.38
2022-08-26T04:48:41.240Z,53.02
2022-08-26T04:51:09.918Z,52.63
2022-08-26T04:53:37.735Z,52.24
2022-08-26T04:56:04.815Z,53.03
2022-08-26T04:58:32.519Z,53.64
2022-08-26T05:00:59.691Z,53.62
2022-08-26T05:03:30.512Z,52.93
2022-08-26T05:05:58.269Z,56.19
2022-08-26T05:08:25.683Z,57.87
2022-08-26T05:10:56.536Z,57.55
2022-08-26T05:13:26.532Z,59.07
2022-08-26T05:15:54.450Z,58.09
2022-08-26T05:18:24.360Z,60.05
2022-08-26T05:20:54.837Z,58.65
2022-08-26T05:23:23.431Z,58.31
2022-08-26T05:25:55.788Z,57.03
2022-08-26T05:28:25.410Z,55.02
2022-08-26T05:30:53.447Z,54.24
2022-08-26T05:33:20.551Z,54.97
2022-08-26T05:35:47.386Z,52.67
2022-08-26T05:38:16.782Z,53.81
2022-08-26T05:40:46.586Z,52.78
2022-08-26T05:43:14.086Z,52.85
2022-08-26T05:45:46.610Z,52.14
2022-08-26T05:48:16.149Z,51.48
2022-08-26T05:50:49.370Z,51.27
2022-08-26T05:53:18.854Z,50.16
2022-08-26T05:55:52.063Z,49.42
2022-08-26T05:58:21.352Z,50.52
2022-08-26T06:01:22.107Z,49.93
2022-08-26T06:03:52.441Z,49.81
2022-08-26T06:06:27.682Z,50.13
2022-08-26T06:08:59.188Z,50.01
2022-08-26T06:11:28.070Z,49.11
2022-08-26T06:14:00.023Z,50.13
2022-08-26T06:16:28.925Z,51.63
2022-08-26T06:18:55.977Z,52.90
2022-08-26T06:21:24.243Z,52.64
2022-08-26T06:24:13.422Z,51.82
2022-08-26T06:26:42.792Z,53.01
2022-08-26T06:29:10.259Z,52.75
2022-08-26T06:31:37.378Z,51.23
2022-08-26T06:34:10.587Z,50.88
2022-08-26T06:36:39.434Z,50.92
2022-08-26T06:39:09.493Z,50.41
2022-08-26T06:41:41.422Z,51.17
2022-08-26T06:44:10.200Z,49.62
2022-08-26T06:46:37.580Z,49.25
2022-08-26T06:49:05.600Z,49.03
2022-08-26T06:51:35.256Z,49.43
2022-08-26T06:54:06.032Z,48.59
2022-08-26T06:56:43.021Z,49.42
2022-08-26T06:59:11.599Z,49.98
2022-08-26T07:01:44.838Z,48.28
2022-08-26T07:04:15.711Z,47.91
2022-08-26T07:06:52.590Z,49.03
2022-08-26T07:09:24.871Z,48.96
2022-08-26T07:11:56.441Z,49.05
2022-08-26T07:14:25.058Z,47.73
2022-08-26T07:16:53.169Z,46.92
2022-08-26T07:19:31.208Z,46.81
2022-08-26T07:22:03.945Z,49.04
2022-08-26T07:24:32.605Z,49.45
2022-08-26T07:27:05.470Z,48.62
2022-08-26T07:29:33.307Z,48.16
2022-08-26T07:32:00.063Z,48.72
2022-08-26T07:34:27.318Z,48.43
2022-08-26T07:36:55.368Z,48.69
2022-08-26T07:39:22.807Z,49.54
2022-08-26T07:41:49.866Z,50.06
2022-08-26T07:44:16.763Z,47.56
2022-08-26T07:46:44.063Z,47.57
2022-08-26T07:49:12.322Z,47.27
2022-08-26T07:51:39.794Z,47.83
2022-08-26T07:54:07.334Z,47.19
2022-08-26T07:56:34.134Z,47.43
2022-08-26T07:59:00.895Z,47.85
2022-08-26T08:01:29.715Z,46.15
2022-08-26T08:03:57.774Z,47.58
2022-08-26T08:06:28.170Z,49.88
2022-08-26T08:08:56.235Z,45.89
2022-08-26T08:11:24.286Z,46.04
2022-08-26T08:13:56.413Z,45.31
2022-08-26T08:16:28.425Z,48.63
2022-08-26T08:18:59.359Z,49.40
2022-08-26T08:21:27.672Z,47.95
2022-08-26T08:23:57.634Z,46.00
2022-08-26T08:26:25.735Z,45.24
2022-08-26T08:28:56.810Z,46.47
2022-08-26T08:34:16.933Z,43.58
2022-08-26T08:36:46.387Z,44.05
2022-08-26T08:39:14.050Z,44.69
2022-08-26T08:41:58.990Z,45.76
2022-08-26T08:47:18.533Z,44.65
2022-08-26T08:49:47.515Z,44.59
2022-08-26T08:52:32.819Z,42.61
2022-08-26T08:54:59.609Z,43.55
2022-08-26T08:58:02.054Z,44.31
2022-08-26T09:00:39.678Z,42.13
2022-08-26T09:03:56.388Z,43.25
2022-08-26T09:06:25.508Z,40.79
2022-08-26T09:08:56.422Z,41.47
2022-08-26T09:11:23.511Z,40.92
2022-08-26T09:13:55.364Z,40.47
2022-08-26T09:16:43.992Z,39.88
2022-08-26T09:19:29.468Z,37.94
2022-08-26T09:21:58.273Z,38.89
2022-08-26T09:24:28.631Z,37.51
2022-08-26T09:26:58.283Z,36.25
2022-08-26T09:29:32.121Z,37.24
2022-08-26T09:32:25.386Z,36.43
2022-08-26T09:34:54.791Z,34.60
2022-08-26T09:37:40.485Z,34.59
2022-08-26T09:40:16.898Z,33.71
2022-08-26T09:42:43.891Z,32.98
2022-08-26T09:45:12.828Z,34.29
2022-08-26T09:47:53.856Z,32.90
2022-08-26T09:50:29.385Z,32.48
2022-08-26T09:53:14.905Z,32.95
2022-08-26T09:55:47.641Z,31.43
2022-08-26T09:58:32.613Z,31.28
2022-08-26T10:01:01.907Z,31.66
2022-08-26T10:03:33.158Z,31.29
2022-08-26T10:06:06.662Z,32.79
2022-08-26T10:08:42.595Z,32.78
2022-08-26T10:11:24.702Z,31.46
2022-08-26T10:13:56.540Z,30.86
2022-08-26T10:16:48.612Z,35.27
2022-08-26T10:19:56.134Z,32.27
2022-08-26T10:22:42.437Z,32.23
2022-08-26T10:25:16.049Z,31.35
2022-08-26T10:27:54.995Z,31.41
2022-08-26T10:30:27.702Z,31.58
2022-08-26T10:33:09.644Z,31.38
2022-08-26T10:35:44.655Z,30.20
2022-08-26T10:38:17.021Z,30.17
2022-08-26T10:40:52.937Z,31.23
2022-08-26T10:43:26.735Z,30.31
2022-08-26T10:45:59.245Z,30.09
2022-08-26T10:49:09.867Z,27.77
2022-08-26T10:51:45.687Z,29.58
2022-08-26T10:54:22.664Z,29.29
2022-08-26T10:56:57.674Z,28.98
2022-08-26T10:59:31.959Z,27.97
2022-08-26T11:02:10.758Z,28.88
2022-08-26T11:04:38.450Z,28.65
2022-08-26T11:07:29.880Z,28.39
2022-08-26T11:10:17.640Z,28.27
2022-08-26T11:12:49.112Z,29.61
2022-08-26T11:15:24.374Z,28.85
2022-08-26T11:17:55.828Z,28.64
2022-08-26T11:20:22.397Z,29.53
2022-08-26T11:22:52.831Z,28.33
2022-08-26T11:25:23.528Z,28.56
2022-08-26T11:27:56.751Z,29.53
2022-08-26T11:30:24.166Z,28.89
2022-08-26T11:32:55.297Z,29.94
2022-08-26T11:35:23.347Z,28.45
2022-08-26T11:38:15.642Z,28.88
2022-08-26T11:40:42.503Z,29.00
2022-08-26T11:43:19.723Z,29.62
2022-08-26T11:45:57.408Z,29.04
2022-08-26T11:48:27.064Z,28.62
2022-08-26T11:51:09.325Z,28.42
2022-08-26T11:53:42.570Z,29.19
2022-08-26T11:56:12.368Z,30.30
2022-08-26T11:58:43.772Z,28.51
2022-08-26T12:01:13.368Z,25.55
2022-08-26T12:03:50.196Z,25.68
2022-08-26T12:06:44.964Z,24.95
2022-08-26T12:09:21.074Z,24.93
2022-08-26T12:11:47.952Z,25.54
2022-08-26T12:14:25.035Z,25.80
2022-08-26T12:16:54.184Z,26.95
2022-08-26T12:19:28.452Z,26.43
2022-08-26T12:22:07.460Z,26.79
2022-08-26T12:24:34.388Z,27.17
2022-08-26T12:27:25.479Z,26.78
2022-08-26T12:30:21.567Z,26.23
2022-08-26T12:33:22.387Z,26.90
2022-08-26T12:35:54.401Z,26.40
2022-08-26T12:38:24.982Z,28.73
2022-08-26T12:40:51.790Z,27.35
2022-08-26T12:43:40.375Z,26.58
2022-08-26T12:46:13.628Z,27.30
2022-08-26T12:48:44.242Z,26.78
2022-08-26T12:51:24.236Z,28.79
2022-08-26T12:53:51.719Z,27.40
2022-08-26T12:56:25.270Z,27.42
2022-08-26T12:59:24.425Z,27.40
2022-08-26T13:01:52.308Z,27.59
2022-08-26T13:04:32.089Z,27.30
2022-08-26T13:07:25.444Z,27.25
2022-08-26T13:09:55.007Z,26.19
2022-08-26T13:12:41.125Z,27.18
2022-08-26T13:15:08.209Z,27.72
2022-08-26T13:17:36.017Z,26.50
2022-08-26T13:20:04.320Z,27.01
2022-08-26T13:22:31.711Z,27.45
2022-08-26T13:24:58.527Z,27.36
2022-08-26T13:27:27.272Z,27.12
2022-08-26T13:29:54.995Z,26.73
2022-08-26T13:32:27.243Z,26.25
2022-08-26T13:34:56.438Z,27.41
2022-08-26T13:37:24.327Z,27.28
2022-08-26T13:40:01.726Z,26.95
2022-08-26T13:42:29.370Z,26.38
2022-08-26T13:44:58.163Z,26.54
2022-08-26T13:47:26.091Z,27.79
2022-08-26T13:49:54.795Z,26.96
2022-08-26T13:52:25.544Z,27.44
2022-08-26T13:54:57.144Z,27.90
2022-08-26T13:57:24.734Z,27.33
2022-08-26T13:59:53.965Z,29.07
2022-08-26T14:02:20.610Z,26.82
2022-08-26T14:04:47.262Z,27.17
2022-08-26T14:07:14.159Z,26.64
2022-08-26T14:09:40.823Z,27.15
2022-08-26T14:12:07.768Z,28.12
2022-08-26T14:14:34.410Z,26.74
2022-08-26T14:17:01.514Z,31.17
2022-08-26T14:19:30.329Z,26.90
2022-08-26T14:21:57.364Z,27.72
2022-08-26T14:24:24.037Z,27.34
2022-08-26T14:26:50.725Z,27.42
2022-08-26T14:29:17.598Z,27.63
2022-08-26T14:31:44.810Z,26.55
2022-08-26T14:34:13.913Z,27.22
2022-08-26T14:36:40.608Z,27.00
2022-08-26T14:39:12.739Z,28.45
2022-08-26T14:41:54.562Z,28.57
2022-08-26T14:44:26.074Z,27.27
2022-08-26T14:46:53.458Z,28.26
2022-08-26T14:49:22.919Z,29.70
2022-08-26T14:51:50.075Z,28.39
2022-08-26T14:54:18.307Z,28.29
2022-08-26T14:56:48.823Z,30.61
2022-08-26T14:59:18.333Z,29.70
2022-08-26T15:01:45.506Z,28.93
2022-08-26T15:04:12.938Z,28.47
2022-08-26T15:06:40.613Z,28.82
2022-08-26T15:09:07.496Z,28.85
2022-08-26T15:11:34.422Z,28.98
2022-08-26T15:14:01.164Z,29.01
2022-08-26T15:16:29.116Z,28.96
2022-08-26T15:18:56.580Z,29.52
2022-08-26T15:21:23.889Z,29.71
2022-08-26T15:23:51.497Z,29.91
2022-08-26T15:26:18.637Z,30.22
2022-08-26T15:28:45.567Z,30.06
2022-08-26T15:31:12.476Z,30.04
2022-08-26T15:33:40.385Z,29.24
2022-08-26T15:36:08.866Z,29.47
2022-08-26T15:38:39.432Z,28.66
2022-08-26T15:41:08.628Z,29.14
2022-08-26T15:43:36.934Z,27.85
2022-08-26T15:46:04.527Z,28.10
2022-08-26T15:48:31.481Z,28.92
2022-08-26T15:51:01.502Z,28.95
2022-08-26T15:53:30.565Z,29.31
2022-08-26T15:55:58.648Z,27.80
2022-08-26T15:58:27.078Z,28.79
2022-08-26T16:00:57.490Z,29.01
2022-08-26T16:03:24.468Z,29.27
2022-08-26T16:05:51.309Z,29.29
2022-08-26T16:08:18.099Z,28.96
2022-08-26T16:10:50.265Z,28.42
2022-08-26T16:13:19.398Z,29.58
2022-08-26T16:15:49.558Z,29.69
2022-08-26T16:18:17.008Z,29.37
2022-08-26T16:20:55.185Z,29.75
2022-08-26T16:23:36.587Z,29.25
2022-08-26T16:26:10.914Z,28.89
2022-08-26T16:28:38.665Z,29.36
2022-08-26T16:31:06.427Z,29.33
2022-08-26T16:33:33.113Z,29.06
2022-08-26T16:35:59.846Z,29.33
2022-08-26T16:38:26.827Z,29.54
2022-08-26T16:40:53.502Z,31.75
2022-08-26T16:43:20.094Z,31.37
2022-08-26T16:45:46.774Z,30.94
2022-08-26T16:48:13.576Z,30.86
2022-08-26T16:50:43.191Z,32.46
2022-08-26T16:55:48.332Z,33.46
2022-08-26T16:58:15.183Z,34.07
2022-08-26T17:00:42.056Z,35.44
2022-08-26T17:03:09.118Z,35.20
2022-08-26T17:05:36.354Z,34.47
2022-08-26T17:08:04.563Z,35.80
2022-08-26T17:10:31.819Z,34.68
2022-08-26T17:12:58.760Z,36.66
2022-08-26T17:15:25.909Z,35.86
2022-08-26T17:17:53.708Z,37.22
2022-08-26T17:20:22.404Z,36.65
2022-08-26T17:22:51.476Z,37.25
2022-08-26T17:25:25.834Z,36.87
2022-08-26T17:27:53.082Z,36.98
2022-08-26T17:30:21.153Z,37.16
2022-08-26T17:32:48.391Z,37.82
2022-08-26T17:35:16.070Z,36.57
2022-08-26T17:37:43.332Z,37.91
2022-08-26T17:40:13.541Z,37.50
2022-08-26T17:42:40.837Z,38.72
2022-08-26T17:45:09.052Z,38.21
2022-08-26T17:47:35.856Z,40.18
2022-08-26T17:50:05.016Z,40.05
2022-08-26T17:52:31.982Z,40.85
2022-08-26T17:54:59.447Z,40.56
2022-08-26T17:57:26.592Z,40.98
2022-08-26T17:59:53.717Z,38.91
2022-08-26T18:02:21.227Z,39.23
2022-08-26T18:04:48.133Z,38.84
2022-08-26T18:07:15.819Z,39.77
2022-08-26T18:09:42.608Z,39.88
2022-08-26T18:12:09.653Z,39.82
2022-08-26T18:14:36.761Z,40.06
2022-08-26T18:17:03.796Z,39.92
2022-08-26T18:19:33.377Z,38.61
2022-08-26T18:22:00.115Z,38.89
2022-08-26T18:24:30.374Z,38.46
2022-08-26T18:26:57.313Z,39.99
2022-08-26T18:29:25.477Z,40.42
2022-08-26T18:31:52.189Z,40.04
2022-08-26T18:34:19.506Z,39.99
2022-08-26T18:36:47.276Z,38.80
2022-08-26T18:39:15.494Z,38.60
2022-08-26T18:42:03.239Z,40.17
2022-08-26T18:44:30.017Z,40.17
2022-08-26T18:46:56.703Z,40.57
2022-08-26T18:49:23.441Z,40.18
2022-08-26T18:51:52.881Z,40.25
2022-08-26T18:56:47.949Z,39.17
2022-08-26T18:59:15.073Z,39.76
2022-08-26T19:01:42.676Z,39.35
2022-08-26T19:04:14.709Z,40.02
2022-08-26T19:06:42.558Z,39.00
2022-08-26T19:09:11.884Z,39.47
2022-08-26T19:11:42.285Z,40.71
2022-08-26T19:14:13.677Z,41.33
2022-08-26T19:16:43.429Z,40.73
2022-08-26T19:19:10.301Z,39.87
2022-08-26T19:21:37.832Z,38.68
2022-08-26T19:24:09.410Z,38.87
2022-08-26T19:26:36.723Z,39.45
2022-08-26T19:29:03.804Z,39.97
2022-08-26T19:31:31.255Z,40.23
2022-08-26T19:33:59.044Z,39.46
2022-08-26T19:36:26.877Z,39.13
2022-08-26T19:38:54.514Z,41.02
2022-08-26T19:41:34.129Z,42.33
2022-08-26T19:44:13.141Z,41.53
2022-08-26T19:46:40.164Z,41.74
2022-08-26T19:49:07.656Z,41.67
2022-08-26T19:51:35.219Z,42.03
2022-08-26T19:54:02.256Z,43.01
2022-08-26T19:56:29.351Z,43.10
2022-08-26T19:58:56.442Z,42.38
2022-08-26T20:01:24.546Z,42.72
2022-08-26T20:03:51.477Z,42.86
2022-08-26T20:06:20.123Z,43.20
2022-08-26T20:08:47.390Z,43.13
2022-08-26T20:11:18.719Z,42.64
2022-08-26T20:13:47.061Z,42.71
2022-08-26T20:16:14.932Z,43.55
2022-08-26T20:19:09.353Z,43.72
2022-08-26T20:21:38.919Z,43.73
2022-08-26T20:24:11.876Z,44.41
2022-08-26T20:26:40.802Z,42.86
2022-08-26T20:29:09.128Z,43.52
2022-08-26T20:31:36.398Z,43.77
2022-08-26T20:34:03.483Z,44.00
2022-08-26T20:36:30.228Z,45.10
2022-08-26T20:38:57.310Z,43.52
2022-08-26T20:41:25.817Z,44.44
2022-08-26T20:43:53.670Z,44.74
2022-08-26T20:46:24.501Z,44.93
2022-08-26T20:48:52.954Z,45.29
2022-08-26T20:51:20.543Z,44.83
2022-08-26T20:53:47.621Z,45.52
2022-08-26T20:56:15.505Z,46.20
2022-08-26T20:58:42.696Z,45.94
2022-08-26T21:01:18.427Z,46.25
2022-08-26T21:03:45.674Z,46.25
2022-08-26T21:06:12.546Z,46.53
2022-08-26T21:08:42.652Z,45.85
2022-08-26T21:11:10.228Z,45.97
2022-08-26T21:14:01.153Z,45.32
2022-08-26T21:16:25.146Z,44.90
2022-08-26T21:18:51.823Z,44.44
2022-08-26T21:21:18.922Z,44.23
2022-08-26T21:23:52.137Z,44.82
2022-08-26T21:26:19.018Z,45.27
2022-08-26T21:28:46.373Z,45.43
2022-08-26T21:31:17.234Z,45.65
2022-08-26T21:33:44.123Z,45.64
2022-08-26T21:36:12.078Z,46.03
2022-08-26T21:38:39.433Z,46.10
2022-08-26T21:41:10.368Z,46.09
2022-08-26T21:43:37.784Z,46.22
2022-08-26T21:46:16.662Z,46.50
2022-08-26T21:48:51.878Z,45.33
2022-08-26T21:51:21.046Z,46.16
2022-08-26T21:53:48.331Z,47.33
2022-08-26T21:56:18.096Z,46.66
2022-08-26T21:58:45.610Z,47.90
2022-08-26T22:01:18.638Z,46.67
2022-08-26T22:03:47.067Z,47.06
2022-08-26T22:06:18.565Z,47.39
2022-08-26T22:08:45.251Z,48.05
2022-08-26T22:11:12.142Z,47.80
2022-08-26T22:13:40.126Z,47.90
2022-08-26T22:16:08.014Z,47.80
2022-08-26T22:18:35.938Z,47.97
2022-08-26T22:21:06.310Z,48.47
2022-08-26T22:23:35.014Z,48.46
2022-08-26T22:26:01.789Z,48.82
2022-08-26T22:28:28.781Z,48.99
2022-08-26T22:30:55.755Z,48.92
2022-08-26T22:33:23.002Z,48.77
2022-08-26T22:35:52.678Z,48.33
2022-08-26T22:38:20.083Z,48.64
2022-08-26T22:40:50.476Z,48.47
2022-08-26T22:43:18.978Z,48.17
2022-08-26T22:45:47.645Z,48.32
2022-08-26T22:48:16.731Z,48.47
2022-08-26T22:50:45.859Z,48.17
2022-08-26T22:53:13.756Z,47.72
2022-08-26T22:55:40.427Z,47.71
2022-08-26T22:58:07.622Z,47.62
2022-08-26T23:00:34.386Z,47.76
2022-08-26T23:03:02.270Z,47.12
2022-08-26T23:05:29.738Z,48.11
2022-08-26T23:07:56.909Z,47.65
2022-08-26T23:10:24.471Z,48.46
2022-08-26T23:12:52.460Z,48.30
2022-08-26T23:15:20.144Z,47.97
2022-08-26T23:17:47.503Z,48.50
2022-08-26T23:20:23.845Z,48.67
2022-08-26T23:22:50.476Z,48.88
2022-08-26T23:25:17.132Z,48.69
2022-08-26T23:27:44.473Z,47.92
2022-08-26T23:30:18.027Z,48.06
2022-08-26T23:32:45.171Z,48.56
2022-08-26T23:35:14.271Z,48.69
2022-08-26T23:37:44.814Z,48.89
2022-08-26T23:40:16.787Z,48.77
2022-08-26T23:42:44.062Z,49.83
2022-08-26T23:45:12.901Z,49.05
2022-08-26T23:47:41.158Z,48.43
2022-08-26T23:50:09.029Z,48.60
2022-08-26T23:52:54.556Z,48.75
2022-08-26T23:55:21.360Z,49.27
2022-08-26T23:57:48.053Z,49.66
